Terminal Aerodrome Forecast
Issued by NWS

Home | Current Version | Previous Version | Text Only | Print | Product List | Glossary On
Versions: 1 2 3 4 5 6 7 8 9 10 11 12 13
000
FTUS42 KMHX 081621 AAA
TAFISO
TAF AMD
KISO 081621Z 0816/0912 26005KT P6SM BKN015 OVC040
     FM081800 31010G15KT P6SM BKN040
     FM082300 32005KT P6SM SKC
      AMD LTD TO CLD VIS AND WIND=

USA.gov is the U.S. government's official web portal to all federal, state and local government web resources and services.